Time;durP1;ratioP1;P1;durP2;ratioP2;P2;SDS_P1;SDS_P2;PMS_P1;PMS_P2;Temp;Humidity;BMP_temperature;BMP_pressure;BME280_temperature;BME280_humidity;BME280_pressure;Samples;Min_cycle;Max_cycle;Signal;HPM_P1;HPM_P2
2022/11/21 00:02:00;;;;;;;30.67;13.23;;;;;;;;;;5038329;28;20033;-68
2022/11/21 00:04:26;;;;;;;26.57;12.13;;;;;;;;;;5038539;28;20040;-68
2022/11/21 00:06:51;;;;;;;30.13;13.20;;;;;;;;;;5055003;28;20040;-68
2022/11/21 00:09:17;;;;;;;33.00;13.53;;;;;;;;;;5038180;28;20093;-68
2022/11/21 00:11:44;;;;;;;31.23;13.60;;;;;;;;;;5070986;28;20029;-70
2022/11/21 00:14:09;;;;;;;35.00;14.10;;;;;;;;;;5053832;28;20025;-70
2022/11/21 00:16:35;;;;;;;35.77;13.90;;;;;;;;;;5036592;28;20039;-70
2022/11/21 00:19:00;;;;;;;31.47;13.70;;;;;;;;;;5037095;28;20123;-69
2022/11/21 00:21:26;;;;;;;30.20;12.63;;;;;;;;;;5071541;28;20044;-70
2022/11/21 00:23:52;;;;;;;31.40;12.80;;;;;;;;;;5053570;28;20036;-69
2022/11/21 00:26:17;;;;;;;30.97;12.87;;;;;;;;;;5037257;28;20473;-69
2022/11/21 00:28:43;;;;;;;31.73;12.83;;;;;;;;;;5037834;28;20047;-69
2022/11/21 00:31:17;;;;;;;33.13;13.50;;;;;;;;;;5037836;28;20122;-69
2022/11/21 00:33:42;;;;;;;31.87;12.73;;;;;;;;;;5037768;28;20036;-69
2022/11/21 00:36:08;;;;;;;31.33;12.70;;;;;;;;;;5054476;28;20147;-68
2022/11/21 00:38:34;;;;;;;33.23;12.00;;;;;;;;;;5037682;28;20032;-70
2022/11/21 00:41:00;;;;;;;31.33;12.30;;;;;;;;;;5071064;28;20036;-69
2022/11/21 00:43:25;;;;;;;28.70;13.13;;;;;;;;;;5037949;28;20068;-70
2022/11/21 00:45:51;;;;;;;28.33;11.63;;;;;;;;;;5037804;28;20039;-70
2022/11/21 00:48:16;;;;;;;33.10;12.93;;;;;;;;;;5054304;28;20040;-68
2022/11/21 00:50:42;;;;;;;31.13;12.23;;;;;;;;;;5037525;28;20052;-70
2022/11/21 00:53:08;;;;;;;28.90;12.63;;;;;;;;;;5054160;28;20510;-71
2022/11/21 00:55:36;;;;;;;31.87;12.83;;;;;;;;;;5070662;28;20043;-70
2022/11/21 00:58:01;;;;;;;29.40;12.80;;;;;;;;;;5073846;28;20052;-70
2022/11/21 01:00:27;;;;;;;33.37;12.70;;;;;;;;;;5092129;28;20097;-69
2022/11/21 01:02:52;;;;;;;29.07;12.40;;;;;;;;;;5057198;28;20035;-70
2022/11/21 01:05:18;;;;;;;29.13;11.90;;;;;;;;;;5057223;28;20470;-69
2022/11/21 01:07:44;;;;;;;29.90;12.73;;;;;;;;;;5057302;28;20036;-70
2022/11/21 01:10:09;;;;;;;28.67;11.80;;;;;;;;;;5057260;28;20436;-69
2022/11/21 01:12:35;;;;;;;31.40;12.67;;;;;;;;;;5073860;28;20047;-70
2022/11/21 01:15:00;;;;;;;28.27;12.37;;;;;;;;;;5057291;28;20382;-69
2022/11/21 01:17:26;;;;;;;27.23;12.40;;;;;;;;;;5057369;28;20482;-69
2022/11/21 01:19:52;;;;;;;24.53;12.07;;;;;;;;;;5073977;28;20046;-70
2022/11/21 01:22:17;;;;;;;30.13;12.57;;;;;;;;;;5057157;28;20039;-69
2022/11/21 01:24:43;;;;;;;29.73;12.60;;;;;;;;;;5040304;28;20115;-69
2022/11/21 01:27:08;;;;;;;21.60;10.60;;;;;;;;;;5073654;28;20035;-69
2022/11/21 01:29:34;;;;;;;30.20;12.23;;;;;;;;;;5056809;28;20527;-69
2022/11/21 01:32:00;;;;;;;30.30;12.47;;;;;;;;;;5056800;28;20076;-70
2022/11/21 01:34:25;;;;;;;27.37;11.63;;;;;;;;;;5040456;28;20028;-69
2022/11/21 01:36:51;;;;;;;24.17;11.67;;;;;;;;;;5056735;28;20043;-69
2022/11/21 01:39:17;;;;;;;27.10;10.90;;;;;;;;;;5040263;28;20032;-69
2022/11/21 01:41:43;;;;;;;28.00;12.63;;;;;;;;;;5056905;28;20031;-68
2022/11/21 01:44:13;;;;;;;26.80;11.83;;;;;;;;;;5040053;28;20059;-69
2022/11/21 01:46:39;;;;;;;28.10;11.95;;;;;;;;;;5056850;28;20040;-71
2022/11/21 01:49:13;;;;;;;30.87;12.73;;;;;;;;;;5040156;28;20086;-69
2022/11/21 01:51:41;;;;;;;25.77;12.63;;;;;;;;;;5056968;28;20044;-69
2022/11/21 01:54:13;;;;;;;29.00;12.77;;;;;;;;;;5040119;28;20126;-69
2022/11/21 01:56:41;;;;;;;26.57;12.33;;;;;;;;;;5056782;28;20458;-68
2022/11/21 01:59:08;;;;;;;30.60;13.30;;;;;;;;;;5073245;28;20048;-69
2022/11/21 02:01:34;;;;;;;31.87;13.30;;;;;;;;;;5073712;28;20090;-69
2022/11/21 02:04:01;;;;;;;35.43;13.03;;;;;;;;;;5040022;28;20395;-69
2022/11/21 02:06:28;;;;;;;29.57;13.40;;;;;;;;;;5056778;28;20089;-69
2022/11/21 02:08:54;;;;;;;36.77;13.90;;;;;;;;;;5073516;28;20127;-69
2022/11/21 02:11:41;;;;;;;33.80;14.77;;;;;;;;;;5073096;28;20134;-70
2022/11/21 02:14:07;;;;;;;39.83;15.27;;;;;;;;;;5090142;28;20036;-69
2022/11/21 02:16:34;;;;;;;31.33;15.80;;;;;;;;;;5041550;28;20032;-69
2022/11/21 02:18:59;;;;;;;34.03;15.60;;;;;;;;;;5094106;28;20047;-70
2022/11/21 02:21:47;;;;;;;43.13;17.60;;;;;;;;;;5060675;28;20555;-68
2022/11/21 02:24:21;;;;;;;43.30;17.00;;;;;;;;;;5077359;28;20251;-69
2022/11/21 02:26:47;;;;;;;45.97;18.60;;;;;;;;;;5060318;28;20074;-69
2022/11/21 02:29:14;;;;;;;42.17;18.23;;;;;;;;;;5060144;28;20098;-69
2022/11/21 02:31:40;;;;;;;48.23;18.63;;;;;;;;;;5060199;28;20447;-68
2022/11/21 02:34:05;;;;;;;48.97;20.53;;;;;;;;;;5060118;28;20036;-71
2022/11/21 02:36:38;;;;;;;50.70;20.37;;;;;;;;;;5060000;28;20378;-69
2022/11/21 02:39:05;;;;;;;51.37;19.80;;;;;;;;;;5060194;28;20539;-70
2022/11/21 02:41:33;;;;;;;51.23;20.90;;;;;;;;;;5043447;28;20040;-70
2022/11/21 02:44:01;;;;;;;46.30;19.27;;;;;;;;;;5060033;28;20043;-73
2022/11/21 02:46:27;;;;;;;41.97;17.77;;;;;;;;;;5076794;28;20047;-69
2022/11/21 02:48:53;;;;;;;41.00;18.00;;;;;;;;;;5076480;28;20039;-68
2022/11/21 02:51:19;;;;;;;47.83;20.23;;;;;;;;;;5059806;28;20047;-68
2022/11/21 02:53:45;;;;;;;43.40;18.23;;;;;;;;;;5076827;28;20036;-68
2022/11/21 02:56:10;;;;;;;41.03;16.27;;;;;;;;;;5059936;28;20052;-69
2022/11/21 02:58:36;;;;;;;38.67;15.67;;;;;;;;;;5059628;28;20087;-70
2022/11/21 03:01:02;;;;;;;39.23;15.53;;;;;;;;;;5059543;28;20060;-69
2022/11/21 03:03:27;;;;;;;38.27;15.10;;;;;;;;;;5059919;28;20032;-68
2022/11/21 03:05:53;;;;;;;46.77;16.17;;;;;;;;;;5043077;28;20546;-69
2022/11/21 03:08:19;;;;;;;33.77;14.67;;;;;;;;;;5059361;28;20477;-69
2022/11/21 03:10:44;;;;;;;37.30;14.30;;;;;;;;;;5059470;28;20044;-69
2022/11/21 03:13:10;;;;;;;31.33;13.17;;;;;;;;;;5059414;28;20032;-69
2022/11/21 03:15:35;;;;;;;34.70;13.53;;;;;;;;;;5076210;28;20032;-68
2022/11/21 03:18:01;;;;;;;35.30;13.73;;;;;;;;;;5057190;28;20514;-69
2022/11/21 03:20:28;;;;;;;30.47;13.13;;;;;;;;;;5091774;28;20055;-69
2022/11/21 03:22:54;;;;;;;31.63;13.40;;;;;;;;;;5073518;28;20044;-69
2022/11/21 03:25:19;;;;;;;34.63;14.03;;;;;;;;;;5057155;28;20187;-70
2022/11/21 03:27:46;;;;;;;30.03;14.00;;;;;;;;;;5056743;28;20486;-70
2022/11/21 03:30:12;;;;;;;29.23;13.07;;;;;;;;;;5041845;28;20036;-69
2022/11/21 03:32:38;;;;;;;31.80;13.03;;;;;;;;;;5058827;28;20042;-69
2022/11/21 03:35:04;;;;;;;31.50;13.07;;;;;;;;;;5042014;28;20058;-69
2022/11/21 03:37:29;;;;;;;35.00;14.43;;;;;;;;;;5092443;28;20032;-69
2022/11/21 03:39:55;;;;;;;33.93;14.10;;;;;;;;;;5059235;28;20462;-71
2022/11/21 03:42:21;;;;;;;29.30;12.20;;;;;;;;;;5058501;28;20370;-70
2022/11/21 03:44:48;;;;;;;32.63;13.10;;;;;;;;;;5059018;28;21058;-68
2022/11/21 03:47:16;;;;;;;32.53;14.00;;;;;;;;;;5075165;28;20036;-68
2022/11/21 03:49:43;;;;;;;35.57;13.40;;;;;;;;;;5041705;28;20363;-69
2022/11/21 03:52:08;;;;;;;29.30;13.20;;;;;;;;;;5058541;28;20036;-68
2022/11/21 03:54:34;;;;;;;27.73;13.07;;;;;;;;;;5058246;28;20040;-69
2022/11/21 03:56:59;;;;;;;31.93;13.33;;;;;;;;;;5075015;28;20043;-70
2022/11/21 03:59:25;;;;;;;31.87;13.23;;;;;;;;;;5075300;28;20052;-71
2022/11/21 04:01:51;;;;;;;28.10;12.07;;;;;;;;;;5057689;28;20105;-70
2022/11/21 04:04:19;;;;;;;31.53;14.37;;;;;;;;;;5074181;28;20032;-69
2022/11/21 04:06:44;;;;;;;36.00;13.27;;;;;;;;;;5041477;28;20035;-69
2022/11/21 04:09:10;;;;;;;30.53;13.67;;;;;;;;;;5057895;28;20162;-68
2022/11/21 04:11:36;;;;;;;30.53;13.60;;;;;;;;;;5041265;28;20050;-68
2022/11/21 04:14:02;;;;;;;40.43;15.60;;;;;;;;;;5057639;28;20382;-71
2022/11/21 04:16:27;;;;;;;34.97;14.13;;;;;;;;;;5041421;28;20024;-70
2022/11/21 04:18:54;;;;;;;31.10;12.90;;;;;;;;;;5058258;28;20039;-69
2022/11/21 04:21:21;;;;;;;35.70;14.87;;;;;;;;;;5056764;28;20366;-68
2022/11/21 04:23:46;;;;;;;33.60;13.67;;;;;;;;;;5049211;28;20036;-68
2022/11/21 04:26:12;;;;;;;32.30;14.27;;;;;;;;;;5048516;28;20037;-70
2022/11/21 04:28:38;;;;;;;32.47;13.83;;;;;;;;;;5041938;28;20036;-70
2022/11/21 04:31:04;;;;;;;35.83;14.03;;;;;;;;;;5041019;28;20082;-67
2022/11/21 04:33:30;;;;;;;34.43;13.67;;;;;;;;;;5076959;28;20043;-66
2022/11/21 04:35:56;;;;;;;36.63;13.87;;;;;;;;;;5095396;28;20035;-66
2022/11/21 04:38:21;;;;;;;29.87;13.13;;;;;;;;;;5061742;28;20057;-66
2022/11/21 04:40:47;;;;;;;34.30;13.30;;;;;;;;;;5061322;28;20043;-66
2022/11/21 04:43:15;;;;;;;32.67;13.30;;;;;;;;;;5061998;28;20483;-65
2022/11/21 04:45:43;;;;;;;33.07;13.57;;;;;;;;;;5061632;28;20133;-66
2022/11/21 04:48:09;;;;;;;36.70;14.23;;;;;;;;;;5078334;28;20046;-65
2022/11/21 04:50:34;;;;;;;34.77;14.37;;;;;;;;;;5094974;28;20390;-65
2022/11/21 04:53:00;;;;;;;30.60;13.87;;;;;;;;;;5041058;28;20077;-64
2022/11/21 04:55:28;;;;;;;38.67;14.83;;;;;;;;;;5041137;28;20493;-65
2022/11/21 04:57:54;;;;;;;39.50;14.97;;;;;;;;;;5073788;28;20044;-65
2022/11/21 05:00:20;;;;;;;39.63;15.63;;;;;;;;;;5057227;28;20028;-65
2022/11/21 05:02:45;;;;;;;41.47;15.67;;;;;;;;;;5057660;28;20802;-65
2022/11/21 05:05:11;;;;;;;44.67;16.63;;;;;;;;;;5059752;28;20133;-66
2022/11/21 05:07:37;;;;;;;37.47;16.17;;;;;;;;;;5060261;28;20107;-65
2022/11/21 05:10:03;;;;;;;38.30;15.73;;;;;;;;;;5076952;28;20066;-65
2022/11/21 05:15:13;;;;;;;34.07;14.93;;;;;;;;;;5076713;28;20031;-65
2022/11/21 05:17:39;;;;;;;44.27;16.53;;;;;;;;;;5060108;28;20140;-65
2022/11/21 05:20:05;;;;;;;42.60;16.93;;;;;;;;;;5077147;28;20462;-65
2022/11/21 05:22:31;;;;;;;39.43;16.10;;;;;;;;;;5077019;28;20042;-65
2022/11/21 05:24:57;;;;;;;35.27;14.80;;;;;;;;;;5094119;28;20378;-65
2022/11/21 05:27:22;;;;;;;46.03;16.90;;;;;;;;;;5061800;28;20036;-64
2022/11/21 05:29:48;;;;;;;38.87;15.77;;;;;;;;;;5059548;28;20131;-69
2022/11/21 05:32:14;;;;;;;36.57;15.03;;;;;;;;;;5060262;28;20034;-65
2022/11/21 05:34:39;;;;;;;42.87;15.57;;;;;;;;;;5059918;28;20028;-65
2022/11/21 05:37:05;;;;;;;38.30;15.33;;;;;;;;;;5059982;28;20073;-65
2022/11/21 05:39:30;;;;;;;36.90;15.57;;;;;;;;;;5076917;28;20070;-66
2022/11/21 05:41:56;;;;;;;38.97;15.77;;;;;;;;;;5060237;28;20039;-65
2022/11/21 05:44:21;;;;;;;37.13;15.30;;;;;;;;;;5059789;28;20373;-65
2022/11/21 05:46:47;;;;;;;37.63;14.83;;;;;;;;;;5059720;28;20078;-65
2022/11/21 05:49:13;;;;;;;38.33;16.07;;;;;;;;;;5059822;28;20440;-65
2022/11/21 05:51:38;;;;;;;38.50;16.13;;;;;;;;;;5061201;28;20092;-65
2022/11/21 05:54:04;;;;;;;34.03;14.73;;;;;;;;;;5063948;28;20040;-65
2022/11/21 05:56:30;;;;;;;38.93;15.23;;;;;;;;;;5064231;28;20449;-66
2022/11/21 05:58:57;;;;;;;34.70;14.47;;;;;;;;;;5064024;28;20391;-65
2022/11/21 06:04:07;;;;;;;32.60;13.60;;;;;;;;;;5080814;28;20096;-65
2022/11/21 06:06:33;;;;;;;36.93;15.47;;;;;;;;;;5080552;28;20027;-65
2022/11/21 06:08:59;;;;;;;33.20;14.77;;;;;;;;;;5097476;28;20047;-65
2022/11/21 06:11:25;;;;;;;38.10;14.80;;;;;;;;;;5063421;28;20039;-65
2022/11/21 06:13:51;;;;;;;35.93;14.23;;;;;;;;;;5063318;28;20544;-65
2022/11/21 06:16:18;;;;;;;33.83;13.57;;;;;;;;;;5080303;28;20046;-65
2022/11/21 06:18:45;;;;;;;35.03;13.97;;;;;;;;;;5093090;28;20099;-65
2022/11/21 06:21:15;;;;;;;31.23;13.60;;;;;;;;;;5082144;28;20042;-65
2022/11/21 06:23:40;;;;;;;36.93;14.77;;;;;;;;;;5068312;28;20047;-64
2022/11/21 06:26:07;;;;;;;30.77;14.13;;;;;;;;;;5050159;28;20123;-66
2022/11/21 06:28:34;;;;;;;29.33;13.33;;;;;;;;;;5085498;28;20034;-65
2022/11/21 06:31:06;;;;;;;27.37;12.20;;;;;;;;;;5064705;28;20370;-65
2022/11/21 06:33:32;;;;;;;30.73;13.97;;;;;;;;;;5083794;28;20122;-65
2022/11/21 06:36:02;;;;;;;37.73;15.37;;;;;;;;;;5059842;28;20190;-65
2022/11/21 06:38:28;;;;;;;27.10;13.93;;;;;;;;;;5085855;28;20063;-65
2022/11/21 06:40:53;;;;;;;29.67;13.83;;;;;;;;;;5050334;28;20318;-65
2022/11/21 06:43:21;;;;;;;29.97;14.07;;;;;;;;;;5067838;28;20468;-65
2022/11/21 06:45:47;;;;;;;31.33;13.23;;;;;;;;;;5068623;28;20031;-65
2022/11/21 06:48:12;;;;;;;35.97;13.80;;;;;;;;;;5066652;28;20034;-65
2022/11/21 06:50:38;;;;;;;31.00;13.70;;;;;;;;;;5089276;28;20473;-64
2022/11/21 06:53:04;;;;;;;27.60;12.00;;;;;;;;;;5086190;28;20048;-65
2022/11/21 06:55:30;;;;;;;26.90;12.17;;;;;;;;;;5051277;28;20027;-65
2022/11/21 06:58:04;;;;;;;29.20;12.60;;;;;;;;;;5085371;28;20044;-65
2022/11/21 07:00:30;;;;;;;27.57;12.80;;;;;;;;;;5069411;28;20042;-65
2022/11/21 07:03:00;;;;;;;31.17;12.93;;;;;;;;;;5067870;28;20119;-66
2022/11/21 07:05:27;;;;;;;35.53;14.95;;;;;;;;;;5076037;28;20061;-64
2022/11/21 07:07:59;;;;;;;40.73;14.20;;;;;;;;;;5042563;28;20039;-64
2022/11/21 07:10:25;;;;;;;31.97;14.37;;;;;;;;;;5058809;28;20040;-65
2022/11/21 07:15:37;;;;;;;31.33;13.87;;;;;;;;;;5074897;28;20032;-65
2022/11/21 07:18:03;;;;;;;39.33;14.53;;;;;;;;;;5042180;28;20049;-65
2022/11/21 07:20:32;;;;;;;40.63;15.63;;;;;;;;;;5060379;28;20036;-67
2022/11/21 07:23:02;;;;;;;36.60;15.00;;;;;;;;;;5097994;28;20036;-66
2022/11/21 07:25:27;;;;;;;44.77;14.83;;;;;;;;;;5093646;28;20123;-65
2022/11/21 07:27:57;;;;;;;41.00;15.60;;;;;;;;;;5075452;28;20089;-64
2022/11/21 07:30:22;;;;;;;36.90;14.50;;;;;;;;;;5058677;28;20052;-65
2022/11/21 07:32:53;;;;;;;35.67;14.50;;;;;;;;;;5075477;28;20097;-65
2022/11/21 07:35:19;;;;;;;34.93;14.57;;;;;;;;;;5075603;28;20036;-64
2022/11/21 07:37:45;;;;;;;42.27;16.10;;;;;;;;;;5075264;28;20419;-64
2022/11/21 07:40:11;;;;;;;35.03;14.53;;;;;;;;;;5075223;28;20465;-65
2022/11/21 07:42:37;;;;;;;39.63;14.60;;;;;;;;;;5074995;28;20043;-65
2022/11/21 07:45:03;;;;;;;38.37;15.90;;;;;;;;;;5092102;28;20036;-65
2022/11/21 07:47:29;;;;;;;35.33;14.67;;;;;;;;;;5040919;28;20078;-65
2022/11/21 07:49:54;;;;;;;34.70;15.07;;;;;;;;;;5056502;28;20063;-65
2022/11/21 07:52:20;;;;;;;35.37;14.73;;;;;;;;;;5039524;28;20036;-65
2022/11/21 07:54:45;;;;;;;37.97;15.17;;;;;;;;;;5073761;28;20390;-65
2022/11/21 07:57:11;;;;;;;40.90;15.60;;;;;;;;;;5073745;28;20067;-64
2022/11/21 07:59:37;;;;;;;39.33;15.80;;;;;;;;;;5040163;28;20486;-60
2022/11/21 08:02:02;;;;;;;34.63;14.63;;;;;;;;;;5053152;28;20042;-65
2022/11/21 08:04:28;;;;;;;38.17;15.30;;;;;;;;;;5075121;28;20506;-64
2022/11/21 08:06:54;;;;;;;39.67;14.67;;;;;;;;;;5091610;28;20458;-64
2022/11/21 08:09:19;;;;;;;32.37;14.93;;;;;;;;;;5058104;28;20040;-64
2022/11/21 08:11:45;;;;;;;36.07;15.30;;;;;;;;;;5074105;28;20040;-64
2022/11/21 08:14:10;;;;;;;37.60;14.30;;;;;;;;;;5086284;28;20100;-64
2022/11/21 08:16:36;;;;;;;37.03;14.70;;;;;;;;;;5077908;28;20084;-65
2022/11/21 08:19:02;;;;;;;37.27;14.83;;;;;;;;;;5095196;28;20036;-64
2022/11/21 08:21:28;;;;;;;30.17;14.23;;;;;;;;;;5090356;28;20378;-64
2022/11/21 08:23:53;;;;;;;34.37;15.33;;;;;;;;;;5061180;28;20042;-64
2022/11/21 08:26:19;;;;;;;35.73;14.33;;;;;;;;;;5061464;28;20059;-64
2022/11/21 08:28:45;;;;;;;35.00;15.07;;;;;;;;;;5077681;28;20461;-64
2022/11/21 08:31:11;;;;;;;34.47;14.87;;;;;;;;;;5077660;28;20196;-64
2022/11/21 08:33:36;;;;;;;35.67;14.80;;;;;;;;;;5077988;28;20035;-65
2022/11/21 08:36:03;;;;;;;30.83;14.60;;;;;;;;;;5066179;28;20489;-63
2022/11/21 08:38:28;;;;;;;37.47;14.87;;;;;;;;;;5074908;28;20039;-67
2022/11/21 08:43:38;;;;;;;34.47;14.67;;;;;;;;;;5074117;28;20043;-65
2022/11/21 08:46:03;;;;;;;36.33;15.73;;;;;;;;;;5074142;28;20024;-65
2022/11/21 08:48:29;;;;;;;42.30;16.70;;;;;;;;;;5074264;28;20038;-64
2022/11/21 08:50:57;;;;;;;39.30;16.90;;;;;;;;;;5040693;28;20055;-64
2022/11/21 08:53:23;;;;;;;38.47;17.13;;;;;;;;;;5040722;28;20077;-64
2022/11/21 08:55:48;;;;;;;35.07;14.93;;;;;;;;;;5078113;28;20024;-65
2022/11/21 08:58:14;;;;;;;33.10;15.23;;;;;;;;;;5042833;28;20059;-63
2022/11/21 09:00:40;;;;;;;33.80;15.63;;;;;;;;;;5063493;28;20039;-67
2022/11/21 09:03:06;;;;;;;31.87;14.13;;;;;;;;;;5047636;28;20082;-66
2022/11/21 09:05:32;;;;;;;29.57;13.57;;;;;;;;;;5049530;28;20439;-65
2022/11/21 09:07:58;;;;;;;26.63;12.70;;;;;;;;;;5049903;28;20040;-66
2022/11/21 09:10:25;;;;;;;32.73;14.03;;;;;;;;;;5066104;28;20122;-65
2022/11/21 09:12:50;;;;;;;27.23;13.13;;;;;;;;;;5065981;28;20077;-64
2022/11/21 09:18:04;;;;;;;28.10;12.87;;;;;;;;;;5066328;28;20130;-65
2022/11/21 09:20:37;;;;;;;30.27;13.93;;;;;;;;;;5081225;28;20032;-65
2022/11/21 09:23:07;;;;;;;29.90;13.73;;;;;;;;;;5081873;28;20090;-64
2022/11/21 09:25:33;;;;;;;29.93;13.13;;;;;;;;;;5064988;28;20028;-66
2022/11/21 09:28:00;;;;;;;31.20;14.00;;;;;;;;;;5049107;28;20127;-67
2022/11/21 09:30:25;;;;;;;33.13;13.83;;;;;;;;;;5102206;28;20151;-65
2022/11/21 09:32:51;;;;;;;31.17;14.23;;;;;;;;;;5100816;28;20424;-67
2022/11/21 09:35:17;;;;;;;29.27;13.43;;;;;;;;;;5065608;28;20035;-66
2022/11/21 09:37:43;;;;;;;32.63;14.57;;;;;;;;;;5047791;28;20362;-66
2022/11/21 09:40:14;;;;;;;36.17;14.43;;;;;;;;;;5049708;28;20027;-66
2022/11/21 09:42:39;;;;;;;;;;;;;;;;;;5066389;28;20489;-64
2022/11/21 09:45:23;;;;;;;28.63;13.23;;;;;;;;;;5055748;28;19912;-67
2022/11/21 09:47:50;;;;;;;31.93;13.90;;;;;;;;;;5064081;28;20035;-66
2022/11/21 09:50:18;;;;;;;31.93;13.67;;;;;;;;;;5056987;28;20039;-66
2022/11/21 09:53:13;;;;;;;35.30;14.63;;;;;;;;;;5049568;28;20037;-66
2022/11/21 09:55:57;;;;;;;32.60;14.73;;;;;;;;;;5061542;28;20498;-65
2022/11/21 09:58:44;;;;;;;32.77;14.47;;;;;;;;;;5054695;28;20166;-65
2022/11/21 10:01:13;;;;;;;31.63;15.13;;;;;;;;;;5084882;28;20032;-65
2022/11/21 10:03:46;;;;;;;33.13;14.13;;;;;;;;;;5064870;28;20389;-65
2022/11/21 10:06:17;;;;;;;35.53;14.57;;;;;;;;;;5081145;28;20040;-66
2022/11/21 10:08:43;;;;;;;;;;;;;;;;;;5056281;28;20031;-65
2022/11/21 10:11:21;;;;;;;27.60;13.00;;;;;;;;;;5049352;28;19931;-64
2022/11/21 10:13:53;;;;;;;34.67;13.40;;;;;;;;;;5065271;28;20035;-65
2022/11/21 10:16:28;;;;;;;29.17;13.03;;;;;;;;;;5065341;28;20043;-65
2022/11/21 10:18:54;;;;;;;24.43;12.57;;;;;;;;;;5047713;28;20032;-65
2022/11/21 10:21:48;;;;;;;30.53;13.43;;;;;;;;;;5064804;28;20039;-64
2022/11/21 10:24:32;;;;;;;29.33;13.73;;;;;;;;;;5038194;28;20153;-66
2022/11/21 10:27:14;;;;;;;29.57;13.07;;;;;;;;;;5064776;28;20480;-66
2022/11/21 10:29:39;;;;;;;;;;;;;;;;;;5081908;28;20039;-66
2022/11/21 10:32:19;;;;;;;23.23;10.93;;;;;;;;;;5066561;28;19912;-67
2022/11/21 10:34:46;;;;;;;21.70;11.15;;;;;;;;;;5065848;28;20039;-65
2022/11/21 10:37:14;;;;;;;22.37;10.40;;;;;;;;;;5084376;28;20032;-65
2022/11/21 10:39:43;;;;;;;20.33;10.77;;;;;;;;;;5102847;28;20031;-66
2022/11/21 10:42:14;;;;;;;20.20;10.30;;;;;;;;;;5069527;28;20052;-66
2022/11/21 10:45:40;;;;;;;25.30;11.82;;;;;;;;;;5086871;28;20043;-65
2022/11/21 10:47:38;;;;;;;21.87;10.37;;;;;;;;;;5077082;28;20027;-66
2022/11/21 10:50:23;;;;;;;23.20;11.23;;;;;;;;;;5068492;28;20044;-68
2022/11/21 10:52:50;;;;;;;19.37;10.10;;;;;;;;;;5052366;28;20125;-65
2022/11/21 10:55:16;;;;;;;19.90;9.77;;;;;;;;;;5067443;28;20066;-67
2022/11/21 10:57:46;;;;;;;17.00;8.97;;;;;;;;;;5051788;28;20035;-68
2022/11/21 11:00:14;;;;;;;16.17;8.88;;;;;;;;;;5060395;28;20052;-66
2022/11/21 11:02:41;;;;;;;16.53;9.07;;;;;;;;;;5050904;28;20027;-65
2022/11/21 11:05:26;;;;;;;22.43;9.80;;;;;;;;;;5067679;28;20035;-66
2022/11/21 11:08:05;;;;;;;18.27;9.37;;;;;;;;;;5052051;28;20385;-65
2022/11/21 11:10:32;;;;;;;20.03;9.37;;;;;;;;;;5052189;28;20040;-66
2022/11/21 11:15:59;;;;;;;25.60;10.23;;;;;;;;;;5068672;28;20031;-65
2022/11/21 11:18:25;;;;;;;22.30;9.93;;;;;;;;;;5069513;28;20027;-66
2022/11/21 11:20:51;;;;;;;22.67;9.90;;;;;;;;;;5058140;28;20289;-66
2022/11/21 11:23:19;;;;;;;21.33;10.67;;;;;;;;;;5052349;28;20030;-66
2022/11/21 11:25:57;;;;;;;23.60;10.40;;;;;;;;;;5068182;28;20462;-66
2022/11/21 11:28:24;;;;;;;20.67;10.67;;;;;;;;;;5057704;28;20032;-65
2022/11/21 11:30:50;;;;;;;24.17;10.67;;;;;;;;;;5050107;28;20031;-66
2022/11/21 11:33:29;;;;;;;24.07;11.60;;;;;;;;;;5052600;28;20036;-66
2022/11/21 11:36:04;;;;;;;30.92;13.02;;;;;;;;;;5083718;28;20039;-67
2022/11/21 11:38:31;;;;;;;28.13;13.07;;;;;;;;;;5049699;28;20032;-66
2022/11/21 11:40:59;;;;;;;29.60;12.37;;;;;;;;;;5069036;28;20055;-66
2022/11/21 11:49:17;;;;;;;26.65;13.15;;;;;;;;;;5024326;28;20514;-65
2022/11/21 11:52:16;;;;;;;25.13;12.83;;;;;;;;;;5055963;28;20043;-67
2022/11/21 11:55:26;;;;;;;26.70;12.97;;;;;;;;;;5080721;28;20055;-63
2022/11/21 11:57:53;;;;;;;25.17;12.17;;;;;;;;;;5075199;28;20027;-66
2022/11/21 12:00:25;;;;;;;28.17;12.77;;;;;;;;;;5075444;28;20146;-65
2022/11/21 12:02:56;;;;;;;23.57;11.77;;;;;;;;;;5077870;28;20035;-65
2022/11/21 12:05:25;;;;;;;20.27;11.73;;;;;;;;;;5061849;28;20035;-65
2022/11/21 12:07:58;;;;;;;25.17;11.53;;;;;;;;;;5077129;28;20043;-65
2022/11/21 12:10:35;;;;;;;22.90;11.50;;;;;;;;;;5061024;28;20039;-65
2022/11/21 12:13:08;;;;;;;24.70;11.40;;;;;;;;;;5060691;28;20122;-64
2022/11/21 12:15:48;;;;;;;22.80;11.23;;;;;;;;;;5077935;28;20089;-64
2022/11/21 12:18:14;;;;;;;24.53;11.73;;;;;;;;;;5093670;28;20040;-65
2022/11/21 12:20:59;;;;;;;25.10;11.47;;;;;;;;;;5077723;28;20145;-65
2022/11/21 12:23:34;;;;;;;21.67;10.60;;;;;;;;;;5061107;28;20049;-66
2022/11/21 12:26:18;;;;;;;22.50;10.60;;;;;;;;;;5060872;28;20059;-66
2022/11/21 12:29:03;;;;;;;25.07;11.33;;;;;;;;;;5060036;28;20039;-66
2022/11/21 12:31:32;;;;;;;22.77;11.13;;;;;;;;;;5094514;28;20043;-66
2022/11/21 12:34:08;;;;;;;21.17;10.70;;;;;;;;;;5060864;28;20042;-66
2022/11/21 12:36:56;;;;;;;18.47;10.37;;;;;;;;;;5056343;28;20930;-66
2022/11/21 12:39:40;;;;;;;18.93;9.83;;;;;;;;;;5063632;28;20035;-65
2022/11/21 12:45:04;;;;;;;23.27;11.00;;;;;;;;;;5067102;28;20436;-65
2022/11/21 12:54:29;;;;;;;22.47;10.90;;;;;;;;;;5066936;28;20059;-65
2022/11/21 12:56:20;;;;;;;;;;;;;;;;;;5083805;28;20098;-65
2022/11/21 12:58:47;;;;;;;20.53;9.87;;;;;;;;;;5059686;28;19926;-66
2022/11/21 13:01:27;;;;;;;22.60;11.13;;;;;;;;;;5045841;28;20055;-65
2022/11/21 13:04:00;;;;;;;18.93;10.60;;;;;;;;;;5079219;28;20040;-65
2022/11/21 13:06:34;;;;;;;22.20;10.10;;;;;;;;;;5077257;28;20038;-66
2022/11/21 13:09:01;;;;;;;22.27;10.97;;;;;;;;;;5061428;28;20068;-66
2022/11/21 13:14:26;;;;;;;24.03;12.00;;;;;;;;;;5063160;28;20036;-65
2022/11/21 13:16:56;;;;;;;21.90;10.73;;;;;;;;;;5062322;28;20270;-65
2022/11/21 13:19:40;;;;;;;22.83;11.40;;;;;;;;;;5061048;28;20101;-64
2022/11/21 13:22:26;;;;;;;21.50;11.57;;;;;;;;;;5043610;28;20040;-65
2022/11/21 13:24:52;;;;;;;19.67;10.83;;;;;;;;;;5045480;28;20036;-65
2022/11/21 13:27:26;;;;;;;21.13;10.93;;;;;;;;;;5064007;28;20039;-65
2022/11/21 13:30:10;;;;;;;20.57;10.37;;;;;;;;;;5051022;28;20470;-65
2022/11/21 13:32:37;;;;;;;23.30;11.00;;;;;;;;;;5051473;28;20123;-66
2022/11/21 13:35:22;;;;;;;19.00;10.00;;;;;;;;;;5062829;28;20024;-66
2022/11/21 13:37:48;;;;;;;22.20;10.90;;;;;;;;;;5043691;28;20474;-66
2022/11/21 13:40:26;;;;;;;20.83;10.47;;;;;;;;;;5060673;28;20070;-66
2022/11/21 13:43:08;;;;;;;23.13;10.60;;;;;;;;;;5061462;28;20047;-65
2022/11/21 13:45:36;;;;;;;22.53;10.80;;;;;;;;;;5046258;28;20040;-65
2022/11/21 13:48:07;;;;;;;22.90;11.13;;;;;;;;;;5045779;28;20467;-65
2022/11/21 13:50:55;;;;;;;22.73;10.82;;;;;;;;;;5067422;28;20150;-65
2022/11/21 13:53:36;;;;;;;24.40;11.30;;;;;;;;;;5019778;28;20040;-65
2022/11/21 13:56:03;;;;;;;;;;;;;;;;;;5045720;28;20036;-65
2022/11/21 13:58:47;;;;;;;21.73;10.87;;;;;;;;;;5059349;28;19986;-65
2022/11/21 14:01:32;;;;;;;22.43;10.53;;;;;;;;;;5073728;28;20027;-65
2022/11/21 14:04:16;;;;;;;18.97;9.97;;;;;;;;;;5068240;28;20501;-65
2022/11/21 14:06:44;;;;;;;22.53;11.33;;;;;;;;;;5043689;28;20036;-65
2022/11/21 14:09:26;;;;;;;22.67;11.10;;;;;;;;;;5045576;28;20482;-64
2022/11/21 14:11:57;;;;;;;22.87;10.17;;;;;;;;;;5077329;28;20047;-65
2022/11/21 14:14:37;;;;;;;21.52;10.40;;;;;;;;;;5073367;28;20473;-65
2022/11/21 14:17:03;;;;;;;18.33;9.32;;;;;;;;;;5046565;28;20068;-65
2022/11/21 14:19:31;;;;;;;20.00;9.30;;;;;;;;;;5059227;28;20064;-65
2022/11/21 14:21:58;;;;;;;18.53;9.73;;;;;;;;;;5059881;28;20028;-65
2022/11/21 14:24:24;;;;;;;16.37;10.07;;;;;;;;;;5093561;28;20040;-65
2022/11/21 14:26:51;;;;;;;22.37;10.10;;;;;;;;;;5059105;28;20067;-66
2022/11/21 14:29:17;;;;;;;25.13;10.83;;;;;;;;;;5083500;28;20054;-65
2022/11/21 14:31:44;;;;;;;19.00;10.50;;;;;;;;;;5057677;28;20520;-65
2022/11/21 14:34:09;;;;;;;18.60;10.43;;;;;;;;;;5072922;28;20070;-66
2022/11/21 14:36:36;;;;;;;20.60;9.53;;;;;;;;;;5064843;28;20069;-65
2022/11/21 14:39:06;;;;;;;18.60;9.47;;;;;;;;;;5080536;28;20037;-65
2022/11/21 14:41:33;;;;;;;17.67;9.05;;;;;;;;;;5047213;28;20043;-67
2022/11/21 14:44:00;;;;;;;19.70;9.97;;;;;;;;;;5041967;28;20394;-65
2022/11/21 14:46:27;;;;;;;16.13;9.43;;;;;;;;;;5072742;28;20362;-66
2022/11/21 14:48:52;;;;;;;18.33;9.10;;;;;;;;;;5056269;28;20513;-65
2022/11/21 14:51:19;;;;;;;18.83;9.47;;;;;;;;;;5039648;28;20064;-65
2022/11/21 14:53:46;;;;;;;17.20;8.87;;;;;;;;;;5050147;28;20024;-66
2022/11/21 14:56:32;;;;;;;18.83;8.43;;;;;;;;;;5083517;28;20386;-65
2022/11/21 14:59:00;;;;;;;15.57;7.47;;;;;;;;;;5079778;28;20075;-65
2022/11/21 15:01:30;;;;;;;13.63;7.83;;;;;;;;;;5051895;28;20032;-65
2022/11/21 15:03:56;;;;;;;15.43;8.40;;;;;;;;;;5082506;28;20288;-65
2022/11/21 15:06:22;;;;;;;13.97;8.20;;;;;;;;;;5046979;28;20032;-65